Time;durP1;ratioP1;P1;durP2;ratioP2;P2;SDS_P1;SDS_P2;PMS_P1;PMS_P2;Temp;Humidity;BMP_temperature;BMP_pressure;BME280_temperature;BME280_humidity;BME280_pressure;Samples;Min_cycle;Max_cycle;Signal;HPM_P1;HPM_P2
2022/11/15 00:00:35;;;;;;;0.10;0.10;;;;;;;;;;4149981;28;20061;-40
2022/11/15 00:02:55;;;;;;;0.55;0.13;;;;;;;;;;4134541;28;20070;-41
2022/11/15 00:05:15;;;;;;;0.20;0.20;;;;;;;;;;4140772;28;20050;-42
2022/11/15 00:07:35;;;;;;;0.20;0.10;;;;;;;;;;4149676;28;20057;-40
2022/11/15 00:09:55;;;;;;;0.10;0.10;;;;;;;;;;4138447;28;20058;-40
2022/11/15 00:12:15;;;;;;;0.08;0.08;;;;;;;;;;4176463;28;20053;-42
2022/11/15 00:14:35;;;;;;;0.45;0.10;;;;;;;;;;4133378;28;20128;-40
2022/11/15 00:16:55;;;;;;;0.60;0.30;;;;;;;;;;4141369;28;20057;-40
2022/11/15 00:19:15;;;;;;;0.10;0.10;;;;;;;;;;4149469;28;20453;-41
2022/11/15 00:21:35;;;;;;;0.00;0.00;;;;;;;;;;4143633;28;20057;-41
2022/11/15 00:23:54;;;;;;;0.20;0.20;;;;;;;;;;4145389;28;20057;-42
2022/11/15 00:26:14;;;;;;;;;;;;;;;;;;4134111;28;20050;-40
2022/11/15 00:28:34;;;;;;;0.03;0.00;;;;;;;;;;4144355;28;19921;-40
2022/11/15 00:31:02;;;;;;;0.10;0.10;;;;;;;;;;4136668;28;20064;-41
2022/11/15 00:33:22;;;;;;;0.10;0.10;;;;;;;;;;4149307;28;20394;-40
2022/11/15 00:35:42;;;;;;;0.10;0.10;;;;;;;;;;4147039;28;20050;-40
2022/11/15 00:38:02;;;;;;;0.30;0.10;;;;;;;;;;4140772;28;20054;-40
2022/11/15 00:40:21;;;;;;;0.13;0.10;;;;;;;;;;4135718;28;20108;-44
2022/11/15 00:42:41;;;;;;;0.30;0.30;;;;;;;;;;4143794;28;20058;-40
2022/11/15 00:45:01;;;;;;;;;;;;;;;;;;4145145;28;20050;-40
2022/11/15 00:47:20;;;;;;;0.28;0.10;;;;;;;;;;4132802;28;19922;-41
2022/11/15 00:49:41;;;;;;;0.00;0.00;;;;;;;;;;4142104;28;20490;-41
2022/11/15 00:52:01;;;;;;;0.10;0.10;;;;;;;;;;4148937;28;20054;-41
2022/11/15 00:54:21;;;;;;;0.10;0.10;;;;;;;;;;4142143;28;20449;-41
2022/11/15 00:56:41;;;;;;;0.10;0.10;;;;;;;;;;4145372;28;20129;-40
2022/11/15 00:59:01;;;;;;;0.00;0.00;;;;;;;;;;4137906;28;20054;-40
2022/11/15 01:01:21;;;;;;;;;;;;;;;;;;4149390;28;20493;-41
2022/11/15 01:03:41;;;;;;;0.15;0.10;;;;;;;;;;4132888;28;19922;-40
2022/11/15 01:06:00;;;;;;;;;;;;;;;;;;4133516;28;20054;-40
2022/11/15 01:08:20;;;;;;;0.20;0.20;;;;;;;;;;4145547;28;20028;-41
2022/11/15 01:10:40;;;;;;;;;;;;;;;;;;4140546;28;20060;-40
2022/11/15 01:12:59;;;;;;;0.10;0.10;;;;;;;;;;4148734;28;19980;-40
2022/11/15 01:15:19;;;;;;;;;;;;;;;;;;4138467;28;20057;-40
2022/11/15 01:17:39;;;;;;;0.10;0.00;;;;;;;;;;4137600;28;19980;-40
2022/11/15 01:19:59;;;;;;;0.10;0.10;;;;;;;;;;4135594;28;20058;-41
2022/11/15 01:22:20;;;;;;;0.10;0.10;;;;;;;;;;4148775;28;20065;-40
2022/11/15 01:24:39;;;;;;;1.33;0.17;;;;;;;;;;4135134;28;20054;-40
2022/11/15 01:26:59;;;;;;;0.10;0.10;;;;;;;;;;4142066;28;20058;-40
2022/11/15 01:29:21;;;;;;;0.10;0.10;;;;;;;;;;4144817;28;20054;-40
2022/11/15 01:31:41;;;;;;;0.35;0.10;;;;;;;;;;4136572;28;20069;-41
2022/11/15 01:34:00;;;;;;;0.10;0.10;;;;;;;;;;4144804;28;20053;-40
2022/11/15 01:36:24;;;;;;;0.15;0.15;;;;;;;;;;4148334;28;20050;-42
2022/11/15 01:38:44;;;;;;;0.10;0.10;;;;;;;;;;4148524;28;20058;-40
2022/11/15 01:41:04;;;;;;;0.30;0.20;;;;;;;;;;4133851;28;20477;-41
2022/11/15 01:43:28;;;;;;;0.05;0.05;;;;;;;;;;4148423;28;20054;-41
2022/11/15 01:46:09;;;;;;;0.30;0.05;;;;;;;;;;4147269;28;20046;-40
2022/11/15 01:48:34;;;;;;;0.10;0.10;;;;;;;;;;4158772;28;20061;-48
2022/11/15 01:50:54;;;;;;;0.10;0.10;;;;;;;;;;4132193;28;20453;-49
2022/11/15 01:53:15;;;;;;;0.15;0.10;;;;;;;;;;4144877;28;20081;-47
2022/11/15 01:55:35;;;;;;;0.17;0.10;;;;;;;;;;4140477;28;20096;-48
2022/11/15 01:57:58;;;;;;;0.10;0.10;;;;;;;;;;4134490;28;20061;-47
2022/11/15 02:00:17;;;;;;;0.25;0.20;;;;;;;;;;4141748;28;20054;-48
2022/11/15 02:02:37;;;;;;;;;;;;;;;;;;4144022;28;20100;-51
2022/11/15 02:04:57;;;;;;;0.10;0.10;;;;;;;;;;4136350;28;20276;-48
2022/11/15 02:07:18;;;;;;;0.70;0.10;;;;;;;;;;4137905;28;20062;-48
2022/11/15 02:09:39;;;;;;;0.20;0.20;;;;;;;;;;4171582;28;20060;-48
2022/11/15 02:11:59;;;;;;;0.10;0.10;;;;;;;;;;4136290;28;20065;-48
2022/11/15 02:14:20;;;;;;;0.25;0.20;;;;;;;;;;4144195;28;20053;-48
2022/11/15 02:17:18;;;;;;;0.10;0.10;;;;;;;;;;4137386;28;20323;-49
2022/11/15 02:19:49;;;;;;;0.30;0.10;;;;;;;;;;4130306;28;20112;-46
2022/11/15 02:22:31;;;;;;;0.15;0.10;;;;;;;;;;4147786;28;20061;-48
2022/11/15 02:25:14;;;;;;;0.05;0.05;;;;;;;;;;4131457;28;20096;-46
2022/11/15 02:28:03;;;;;;;0.20;0.13;;;;;;;;;;4174127;28;20471;-49
2022/11/15 02:30:42;;;;;;;0.10;0.10;;;;;;;;;;4174421;28;20060;-53
2022/11/15 02:33:22;;;;;;;0.10;0.10;;;;;;;;;;4157365;28;20080;-46
2022/11/15 02:35:58;;;;;;;;;;;;;;;;;;4145744;28;20149;-48
2022/11/15 02:38:33;;;;;;;0.22;0.13;;;;;;;;;;4136252;28;19922;-49
2022/11/15 02:41:04;;;;;;;0.05;0.05;;;;;;;;;;4135741;28;20069;-49
2022/11/15 02:44:06;;;;;;;0.10;0.10;;;;;;;;;;4147710;28;20054;-48
2022/11/15 02:49:29;;;;;;;0.95;0.13;;;;;;;;;;4159679;28;20100;-51
2022/11/15 02:51:50;;;;;;;0.22;0.20;;;;;;;;;;4146168;28;20513;-48
2022/11/15 02:54:17;;;;;;;0.17;0.10;;;;;;;;;;4136692;28;20054;-48
2022/11/15 02:56:37;;;;;;;0.13;0.10;;;;;;;;;;4134162;28;20477;-48
2022/11/15 02:59:00;;;;;;;;;;;;;;;;;;4135834;28;20065;-51
2022/11/15 03:01:35;;;;;;;0.30;0.20;;;;;;;;;;4135840;28;19922;-46
2022/11/15 03:04:07;;;;;;;0.20;0.10;;;;;;;;;;4131017;28;20111;-48
2022/11/15 03:06:37;;;;;;;0.10;0.10;;;;;;;;;;4142586;28;20061;-46
2022/11/15 03:09:12;;;;;;;0.10;0.10;;;;;;;;;;4164047;28;20107;-48
2022/11/15 03:11:35;;;;;;;0.00;0.00;;;;;;;;;;4133308;28;20085;-48
2022/11/15 03:14:02;;;;;;;0.22;0.20;;;;;;;;;;4139800;28;20054;-48
2022/11/15 03:16:41;;;;;;;0.90;0.17;;;;;;;;;;4170478;28;20056;-46
2022/11/15 03:19:16;;;;;;;0.10;0.10;;;;;;;;;;4146061;28;20121;-46
2022/11/15 03:21:37;;;;;;;0.00;0.00;;;;;;;;;;4133255;28;20108;-45
2022/11/15 03:23:58;;;;;;;0.30;0.10;;;;;;;;;;4145896;28;20422;-49
2022/11/15 03:26:19;;;;;;;0.10;0.00;;;;;;;;;;4172654;28;20053;-48
2022/11/15 03:28:44;;;;;;;0.10;0.10;;;;;;;;;;4147003;28;20054;-46
2022/11/15 03:31:46;;;;;;;0.13;0.10;;;;;;;;;;4145978;28;20057;-48
2022/11/15 03:33:45;;;;;;;0.10;0.10;;;;;;;;;;4138002;28;20058;-50
2022/11/15 03:36:05;;;;;;;0.08;0.08;;;;;;;;;;4144808;28;20065;-48
2022/11/15 03:38:26;;;;;;;0.10;0.10;;;;;;;;;;4136663;28;20088;-49
2022/11/15 03:41:01;;;;;;;0.10;0.10;;;;;;;;;;4134695;28;20069;-47
2022/11/15 03:43:39;;;;;;;0.10;0.10;;;;;;;;;;4163187;28;20416;-49
2022/11/15 03:46:07;;;;;;;0.57;0.13;;;;;;;;;;4133041;28;20061;-49
2022/11/15 03:48:35;;;;;;;0.10;0.10;;;;;;;;;;4130490;28;20486;-49
2022/11/15 03:50:55;;;;;;;0.00;0.00;;;;;;;;;;4129520;28;20054;-47
2022/11/15 03:53:16;;;;;;;0.10;0.10;;;;;;;;;;4129215;28;20062;-48
2022/11/15 03:55:36;;;;;;;0.50;0.10;;;;;;;;;;4130675;28;20054;-48
2022/11/15 03:57:59;;;;;;;0.03;0.03;;;;;;;;;;4144137;28;20057;-45
2022/11/15 04:00:19;;;;;;;0.10;0.10;;;;;;;;;;4139638;28;20054;-48
2022/11/15 04:02:39;;;;;;;;;;;;;;;;;;4130377;28;20054;-49
2022/11/15 04:04:59;;;;;;;0.13;0.10;;;;;;;;;;4135388;28;20037;-50
2022/11/15 04:07:18;;;;;;;;;;;;;;;;;;4136698;28;20387;-53
2022/11/15 04:10:01;;;;;;;0.13;0.10;;;;;;;;;;4145953;28;19929;-47
2022/11/15 04:12:30;;;;;;;0.47;0.10;;;;;;;;;;4146205;28;20058;-52
2022/11/15 04:15:06;;;;;;;0.10;0.10;;;;;;;;;;4135082;28;20058;-50
2022/11/15 04:17:26;;;;;;;0.30;0.30;;;;;;;;;;4142660;28;20093;-48
2022/11/15 04:25:04;;;;;;;0.10;0.10;;;;;;;;;;4139451;28;20490;-50
2022/11/15 04:27:23;;;;;;;0.10;0.10;;;;;;;;;;4146305;28;20050;-48
2022/11/15 04:29:43;;;;;;;0.63;0.13;;;;;;;;;;4139358;28;20150;-50
2022/11/15 04:32:05;;;;;;;0.20;0.20;;;;;;;;;;4142614;28;20108;-48
2022/11/15 04:34:25;;;;;;;0.17;0.10;;;;;;;;;;4135454;28;20100;-48
2022/11/15 04:39:24;;;;;;;0.10;0.10;;;;;;;;;;4143758;28;20054;-49
2022/11/15 04:41:43;;;;;;;0.38;0.15;;;;;;;;;;4133066;28;20493;-49
2022/11/15 04:44:03;;;;;;;0.10;0.10;;;;;;;;;;4167753;28;20508;-49
2022/11/15 04:46:24;;;;;;;0.30;0.20;;;;;;;;;;4139959;28;20054;-49
2022/11/15 04:48:45;;;;;;;0.10;0.10;;;;;;;;;;4146010;28;20390;-51
2022/11/15 04:51:04;;;;;;;;;;;;;;;;;;4140588;28;20058;-48
2022/11/15 04:53:25;;;;;;;0.20;0.20;;;;;;;;;;4136761;28;19968;-49
2022/11/15 04:55:45;;;;;;;0.10;0.10;;;;;;;;;;4136937;28;20050;-46
2022/11/15 04:58:05;;;;;;;0.20;0.20;;;;;;;;;;4149147;28;20338;-50
2022/11/15 05:00:26;;;;;;;0.10;0.10;;;;;;;;;;4148830;28;20062;-49
2022/11/15 05:05:25;;;;;;;0.10;0.10;;;;;;;;;;4149132;28;20486;-48
2022/11/15 05:07:45;;;;;;;;;;;;;;;;;;4149218;28;20057;-47
2022/11/15 05:10:05;;;;;;;0.10;0.10;;;;;;;;;;4148529;28;20400;-48
2022/11/15 05:12:24;;;;;;;0.13;0.13;;;;;;;;;;4148862;28;20121;-51
2022/11/15 05:14:44;;;;;;;0.10;0.10;;;;;;;;;;4135259;28;20058;-48
2022/11/15 05:17:03;;;;;;;0.10;0.10;;;;;;;;;;4147180;28;20127;-48
2022/11/15 05:19:23;;;;;;;0.10;0.10;;;;;;;;;;4148820;28;20104;-49
2022/11/15 05:21:43;;;;;;;0.30;0.17;;;;;;;;;;4136239;28;20081;-48
2022/11/15 05:24:03;;;;;;;0.35;0.10;;;;;;;;;;4138166;28;20050;-49
2022/11/15 05:26:23;;;;;;;0.10;0.10;;;;;;;;;;4147381;28;20049;-46
2022/11/15 05:28:42;;;;;;;0.20;0.15;;;;;;;;;;4163830;28;20476;-48
2022/11/15 05:31:07;;;;;;;0.17;0.17;;;;;;;;;;4147571;28;20057;-48
2022/11/15 05:33:27;;;;;;;0.10;0.10;;;;;;;;;;4138135;28;20108;-48
2022/11/15 05:35:49;;;;;;;;;;;;;;;;;;4148888;28;20056;-48
2022/11/15 05:38:08;;;;;;;0.10;0.10;;;;;;;;;;4147616;28;19948;-48
2022/11/15 05:40:29;;;;;;;0.10;0.10;;;;;;;;;;4148316;28;20112;-48
2022/11/15 05:42:49;;;;;;;0.10;0.10;;;;;;;;;;4132912;28;20446;-48
2022/11/15 05:45:09;;;;;;;0.20;0.10;;;;;;;;;;4139585;28;20058;-49
2022/11/15 05:47:29;;;;;;;0.10;0.10;;;;;;;;;;4147420;28;20343;-48
2022/11/15 05:49:49;;;;;;;0.10;0.10;;;;;;;;;;4145521;28;20413;-48
2022/11/15 05:52:09;;;;;;;;;;;;;;;;;;4140046;28;20053;-48
2022/11/15 05:54:31;;;;;;;0.20;0.13;;;;;;;;;;4135916;28;19925;-49
2022/11/15 05:56:51;;;;;;;0.10;0.10;;;;;;;;;;4141471;28;20069;-49
2022/11/15 05:59:11;;;;;;;0.10;0.10;;;;;;;;;;4136135;28;20148;-53
2022/11/15 06:01:31;;;;;;;0.10;0.10;;;;;;;;;;4128766;28;20492;-48
2022/11/15 06:03:51;;;;;;;0.10;0.10;;;;;;;;;;4138609;28;20065;-49
2022/11/15 06:06:11;;;;;;;0.25;0.10;;;;;;;;;;4130819;28;20166;-48
2022/11/15 06:08:31;;;;;;;1.05;0.20;;;;;;;;;;4136033;28;20143;-51
2022/11/15 06:10:51;;;;;;;;;;;;;;;;;;4145946;28;20064;-48
2022/11/15 06:13:11;;;;;;;;;;;;;;;;;;4140953;28;19988;-49
2022/11/15 06:15:33;;;;;;;0.20;0.20;;;;;;;;;;4139900;28;20259;-52
2022/11/15 06:17:57;;;;;;;0.20;0.20;;;;;;;;;;4143411;28;20139;-51
2022/11/15 06:20:18;;;;;;;0.20;0.20;;;;;;;;;;4144240;28;20116;-47
2022/11/15 06:22:37;;;;;;;0.32;0.17;;;;;;;;;;4143549;28;20524;-48
2022/11/15 06:24:57;;;;;;;0.22;0.20;;;;;;;;;;4128996;28;20483;-48
2022/11/15 06:27:17;;;;;;;0.20;0.20;;;;;;;;;;4142132;28;20049;-49
2022/11/15 06:29:37;;;;;;;0.50;0.10;;;;;;;;;;4135216;28;20136;-49
2022/11/15 06:31:56;;;;;;;0.77;0.20;;;;;;;;;;4141084;28;20421;-47
2022/11/15 06:34:17;;;;;;;0.57;0.22;;;;;;;;;;4162204;28;20103;-47
2022/11/15 06:36:37;;;;;;;0.20;0.15;;;;;;;;;;4143639;28;20050;-46
2022/11/15 06:38:57;;;;;;;0.30;0.20;;;;;;;;;;4139825;28;20100;-46
2022/11/15 06:41:17;;;;;;;;;;;;;;;;;;4144429;28;20547;-47
2022/11/15 06:43:38;;;;;;;0.47;0.20;;;;;;;;;;4143380;28;19968;-49
2022/11/15 06:45:59;;;;;;;0.22;0.20;;;;;;;;;;4143106;28;20054;-48
2022/11/15 06:48:19;;;;;;;0.28;0.20;;;;;;;;;;4143384;28;20112;-49
2022/11/15 06:50:38;;;;;;;;;;;;;;;;;;4136663;28;20074;-47
2022/11/15 06:53:03;;;;;;;0.20;0.10;;;;;;;;;;4131455;28;20435;-48
2022/11/15 06:55:23;;;;;;;0.10;0.10;;;;;;;;;;4138055;28;20453;-49
2022/11/15 06:57:49;;;;;;;0.52;0.20;;;;;;;;;;4142722;28;20060;-46
2022/11/15 07:00:10;;;;;;;0.57;0.25;;;;;;;;;;4138374;28;20111;-48
2022/11/15 07:02:30;;;;;;;0.30;0.20;;;;;;;;;;4132288;28;20521;-47
2022/11/15 07:04:49;;;;;;;0.32;0.17;;;;;;;;;;4136088;28;20058;-45
2022/11/15 07:07:09;;;;;;;;;;;;;;;;;;4141459;28;20237;-48
2022/11/15 07:09:29;;;;;;;0.50;0.30;;;;;;;;;;4139630;28;19926;-47
2022/11/15 07:11:49;;;;;;;;;;;;;;;;;;4168181;28;20056;-48
2022/11/15 07:14:08;;;;;;;0.10;0.10;;;;;;;;;;4136504;28;19933;-46
2022/11/15 07:16:28;;;;;;;;;;;;;;;;;;4138687;28;20128;-45
2022/11/15 07:18:48;;;;;;;0.10;0.10;;;;;;;;;;4140097;28;20019;-46
2022/11/15 07:21:10;;;;;;;0.10;0.10;;;;;;;;;;4139633;28;20061;-45
2022/11/15 07:23:30;;;;;;;0.20;0.20;;;;;;;;;;4140178;28;20065;-47
2022/11/15 07:25:50;;;;;;;0.43;0.25;;;;;;;;;;4140061;28;20427;-49
2022/11/15 07:28:10;;;;;;;0.68;0.20;;;;;;;;;;4139694;28;20054;-46
2022/11/15 07:30:30;;;;;;;;;;;;;;;;;;4167340;28;20060;-48
2022/11/15 07:32:57;;;;;;;2.25;0.10;;;;;;;;;;4134274;28;20578;-47
2022/11/15 07:35:17;;;;;;;0.63;0.30;;;;;;;;;;4131868;28;20145;-51
2022/11/15 07:37:37;;;;;;;;;;;;;;;;;;4135984;28;20119;-43
2022/11/15 07:39:57;;;;;;;0.30;0.20;;;;;;;;;;4130083;28;19929;-48
2022/11/15 07:44:55;;;;;;;1.55;0.30;;;;;;;;;;4136625;28;20054;-49
2022/11/15 07:47:15;;;;;;;0.40;0.30;;;;;;;;;;4135428;28;20050;-48
2022/11/15 07:49:35;;;;;;;0.50;0.38;;;;;;;;;;4131836;28;20126;-50
2022/11/15 07:51:55;;;;;;;3.20;0.32;;;;;;;;;;4137675;28;20073;-45
2022/11/15 07:54:15;;;;;;;0.30;0.30;;;;;;;;;;4138091;28;20058;-50
2022/11/15 07:56:35;;;;;;;0.35;0.20;;;;;;;;;;4130633;28;20061;-46
2022/11/15 07:58:55;;;;;;;0.32;0.10;;;;;;;;;;4138045;28;20109;-50
2022/11/15 08:01:15;;;;;;;0.22;0.20;;;;;;;;;;4128232;28;20057;-45
2022/11/15 08:03:35;;;;;;;0.98;0.28;;;;;;;;;;4135211;28;20509;-45
2022/11/15 08:05:55;;;;;;;0.50;0.50;;;;;;;;;;4127898;28;20619;-46
2022/11/15 08:08:15;;;;;;;0.77;0.20;;;;;;;;;;4135159;28;20057;-47
2022/11/15 08:10:35;;;;;;;;;;;;;;;;;;4133097;28;20058;-46
2022/11/15 08:13:06;;;;;;;2.13;0.20;;;;;;;;;;4136790;28;20106;-48
2022/11/15 08:15:27;;;;;;;2.03;0.20;;;;;;;;;;4134776;28;20805;-45
2022/11/15 08:17:47;;;;;;;1.35;0.10;;;;;;;;;;4133640;28;20065;-47
2022/11/15 08:20:07;;;;;;;0.68;0.30;;;;;;;;;;4136949;28;20062;-44
2022/11/15 08:22:27;;;;;;;0.45;0.13;;;;;;;;;;4136484;28;20058;-43
2022/11/15 08:24:47;;;;;;;;;;;;;;;;;;4140760;28;20062;-49
2022/11/15 08:27:14;;;;;;;2.25;0.25;;;;;;;;;;4131869;28;19971;-48
2022/11/15 08:29:34;;;;;;;0.57;0.17;;;;;;;;;;4153761;28;20061;-50
2022/11/15 08:31:54;;;;;;;;;;;;;;;;;;4131081;28;20053;-46
2022/11/15 08:34:14;;;;;;;0.32;0.20;;;;;;;;;;4133606;28;19925;-46
2022/11/15 08:36:35;;;;;;;0.13;0.10;;;;;;;;;;4136261;28;20054;-47
2022/11/15 08:38:55;;;;;;;0.10;0.10;;;;;;;;;;4134170;28;20228;-49
2022/11/15 08:41:26;;;;;;;0.52;0.10;;;;;;;;;;4130012;28;20054;-47
2022/11/15 08:43:45;;;;;;;0.20;0.20;;;;;;;;;;4162572;28;20515;-45
2022/11/15 08:46:05;;;;;;;0.30;0.17;;;;;;;;;;4135688;28;20050;-49
2022/11/15 08:48:25;;;;;;;1.30;0.40;;;;;;;;;;4136984;28;20473;-46
2022/11/15 08:50:46;;;;;;;0.40;0.20;;;;;;;;;;4136417;28;20867;-46
2022/11/15 08:53:08;;;;;;;0.30;0.30;;;;;;;;;;4136542;28;20547;-47
2022/11/15 08:55:27;;;;;;;0.52;0.22;;;;;;;;;;4134575;28;20058;-44
2022/11/15 08:57:48;;;;;;;1.33;0.30;;;;;;;;;;4130148;28;20081;-48
2022/11/15 09:00:09;;;;;;;1.05;0.40;;;;;;;;;;4132328;28;20065;-42
2022/11/15 09:02:28;;;;;;;0.32;0.20;;;;;;;;;;4129217;28;20060;-45
2022/11/15 09:04:48;;;;;;;;;;;;;;;;;;4136193;28;20398;-49
2022/11/15 09:07:11;;;;;;;0.73;0.30;;;;;;;;;;4137597;28;20031;-45
2022/11/15 09:09:30;;;;;;;0.65;0.10;;;;;;;;;;4138680;28;20120;-48
2022/11/15 09:11:50;;;;;;;0.60;0.20;;;;;;;;;;4133953;28;20061;-47
2022/11/15 09:14:12;;;;;;;0.35;0.13;;;;;;;;;;4135593;28;20062;-46
2022/11/15 09:16:31;;;;;;;0.43;0.10;;;;;;;;;;4131785;28;20053;-50
2022/11/15 09:18:53;;;;;;;0.20;0.10;;;;;;;;;;4135657;28;20058;-46
2022/11/15 09:21:13;;;;;;;0.10;0.05;;;;;;;;;;4136524;28;20144;-49
2022/11/15 09:23:33;;;;;;;0.38;0.15;;;;;;;;;;4133811;28;20433;-47
2022/11/15 09:26:01;;;;;;;1.10;0.20;;;;;;;;;;4133194;28;20430;-43
2022/11/15 09:28:21;;;;;;;0.65;0.20;;;;;;;;;;4137098;28;20058;-46
2022/11/15 09:30:41;;;;;;;;;;;;;;;;;;4129030;28;20116;-47
2022/11/15 09:33:09;;;;;;;0.10;0.10;;;;;;;;;;4128520;28;19937;-47
2022/11/15 09:35:29;;;;;;;2.30;0.20;;;;;;;;;;4166573;28;20110;-48
2022/11/15 09:37:49;;;;;;;1.20;0.20;;;;;;;;;;4132803;28;20144;-43
2022/11/15 09:40:16;;;;;;;0.93;0.17;;;;;;;;;;4131400;28;20089;-45
2022/11/15 09:42:48;;;;;;;0.57;0.10;;;;;;;;;;4138850;28;20112;-50
2022/11/15 09:45:22;;;;;;;0.80;0.20;;;;;;;;;;4165003;28;20437;-49
2022/11/15 09:48:04;;;;;;;0.63;0.10;;;;;;;;;;4160619;28;20102;-50
2022/11/15 09:50:32;;;;;;;0.10;0.10;;;;;;;;;;4164978;28;20061;-48
2022/11/15 09:52:35;;;;;;;0.25;0.10;;;;;;;;;;4133766;28;20053;-47
2022/11/15 09:54:38;;;;;;;2.15;0.20;;;;;;;;;;4135105;28;20128;-48
2022/11/15 09:56:43;;;;;;;0.68;0.20;;;;;;;;;;4135289;28;20053;-50
2022/11/15 09:59:01;;;;;;;0.85;0.10;;;;;;;;;;4152240;28;20488;-45
2022/11/15 10:01:08;;;;;;;0.93;0.28;;;;;;;;;;4135512;28;20062;-48
2022/11/15 10:03:27;;;;;;;0.82;0.60;;;;;;;;;;4134057;28;20528;-51
2022/11/15 10:05:29;;;;;;;0.10;0.10;;;;;;;;;;4137740;28;20045;-49
2022/11/15 10:07:30;;;;;;;0.10;0.10;;;;;;;;;;4131595;28;20148;-51
2022/11/15 10:09:41;;;;;;;0.50;0.20;;;;;;;;;;4128695;28;20065;-52
2022/11/15 10:11:42;;;;;;;0.08;0.08;;;;;;;;;;4134998;28;20058;-49
2022/11/15 10:13:47;;;;;;;0.40;0.20;;;;;;;;;;4132703;28;20354;-48
2022/11/15 10:15:50;;;;;;;1.85;0.20;;;;;;;;;;4135713;28;20054;-45
2022/11/15 10:18:07;;;;;;;0.98;0.20;;;;;;;;;;4136905;28;20069;-46
2022/11/15 10:20:19;;;;;;;3.10;0.10;;;;;;;;;;4169500;28;20061;-49
2022/11/15 10:22:38;;;;;;;2.00;0.10;;;;;;;;;;4137385;28;20053;-49
2022/11/15 10:24:42;;;;;;;0.45;0.10;;;;;;;;;;4163778;28;20053;-46
2022/11/15 10:26:54;;;;;;;0.50;0.20;;;;;;;;;;4168055;28;20071;-46
2022/11/15 10:28:55;;;;;;;0.30;0.30;;;;;;;;;;4137352;28;20058;-45
2022/11/15 10:30:58;;;;;;;0.22;0.10;;;;;;;;;;4132196;28;20053;-51
2022/11/15 10:33:36;;;;;;;0.80;0.20;;;;;;;;;;4122319;28;20057;-50
2022/11/15 10:35:38;;;;;;;0.90;0.20;;;;;;;;;;4132372;28;20047;-51
2022/11/15 10:37:39;;;;;;;0.57;0.20;;;;;;;;;;4134292;28;20111;-49
2022/11/15 10:39:41;;;;;;;0.10;0.10;;;;;;;;;;4139326;28;20049;-49
2022/11/15 10:41:43;;;;;;;0.32;0.10;;;;;;;;;;4135604;28;20062;-50
2022/11/15 10:43:45;;;;;;;2.60;0.10;;;;;;;;;;4136966;28;20057;-47
2022/11/15 10:45:47;;;;;;;0.28;0.10;;;;;;;;;;4118570;28;20047;-50
2022/11/15 10:47:48;;;;;;;1.65;0.10;;;;;;;;;;4138999;28;20520;-49
2022/11/15 10:50:04;;;;;;;0.10;0.10;;;;;;;;;;4138784;28;20057;-54
2022/11/15 10:52:16;;;;;;;0.20;0.10;;;;;;;;;;4140203;28;20191;-50
2022/11/15 10:54:34;;;;;;;0.88;0.10;;;;;;;;;;4156481;28;20057;-49
2022/11/15 10:56:36;;;;;;;0.47;0.22;;;;;;;;;;4142491;28;20057;-50
2022/11/15 10:58:40;;;;;;;0.43;0.20;;;;;;;;;;4143259;28;20054;-50
2022/11/15 11:00:41;;;;;;;1.65;0.10;;;;;;;;;;4138908;28;20057;-48
2022/11/15 11:02:55;;;;;;;1.55;0.10;;;;;;;;;;4142160;28;20057;-54
2022/11/15 11:04:56;;;;;;;1.17;0.15;;;;;;;;;;4141443;28;20053;-47
2022/11/15 11:06:59;;;;;;;0.90;0.20;;;;;;;;;;4136943;28;20054;-51
2022/11/15 11:09:03;;;;;;;0.20;0.10;;;;;;;;;;4147524;28;20068;-55
2022/11/15 11:11:05;;;;;;;0.10;0.10;;;;;;;;;;4140676;28;20058;-50
2022/11/15 11:13:34;;;;;;;1.77;0.20;;;;;;;;;;4138785;28;20053;-49
2022/11/15 11:15:36;;;;;;;;;;;;;;;;;;4141214;28;20057;-49
2022/11/15 11:17:57;;;;;;;0.20;0.10;;;;;;;;;;4129865;28;19929;-46
2022/11/15 11:20:20;;;;;;;0.50;0.17;;;;;;;;;;4166528;28;20115;-49
2022/11/15 11:22:28;;;;;;;2.17;0.20;;;;;;;;;;4134661;28;20534;-50
2022/11/15 11:24:37;;;;;;;0.40;0.20;;;;;;;;;;4134313;28;20065;-48
2022/11/15 11:26:48;;;;;;;0.20;0.10;;;;;;;;;;4138354;28;20489;-50
2022/11/15 11:29:11;;;;;;;0.22;0.20;;;;;;;;;;4140159;28;20131;-51
2022/11/15 11:31:12;;;;;;;0.70;0.10;;;;;;;;;;4134240;28;20120;-45
2022/11/15 11:33:20;;;;;;;0.47;0.20;;;;;;;;;;4130272;28;20050;-49
2022/11/15 11:36:11;;;;;;;0.10;0.10;;;;;;;;;;4139135;28;20058;-48
2022/11/15 11:38:49;;;;;;;3.13;0.20;;;;;;;;;;4120151;28;20502;-47
2022/11/15 11:41:10;;;;;;;0.20;0.10;;;;;;;;;;4134075;28;20092;-48
2022/11/15 11:43:30;;;;;;;0.52;0.20;;;;;;;;;;4121662;28;20070;-47
2022/11/15 11:46:15;;;;;;;0.13;0.10;;;;;;;;;;4131284;28;21378;-51
2022/11/15 11:48:25;;;;;;;0.57;0.20;;;;;;;;;;4133096;28;20069;-47
2022/11/15 11:50:27;;;;;;;0.57;0.20;;;;;;;;;;4136172;28;20050;-52
2022/11/15 11:52:37;;;;;;;0.32;0.10;;;;;;;;;;4135948;28;20054;-55
2022/11/15 11:54:47;;;;;;;0.15;0.08;;;;;;;;;;4133331;28;20050;-50
2022/11/15 11:56:50;;;;;;;2.00;0.17;;;;;;;;;;4137395;28;20054;-55
2022/11/15 11:58:53;;;;;;;0.32;0.20;;;;;;;;;;4144728;28;20080;-56
2022/11/15 12:01:17;;;;;;;0.38;0.20;;;;;;;;;;4160735;28;20080;-52
2022/11/15 12:03:35;;;;;;;1.23;0.47;;;;;;;;;;4153634;28;20115;-49
2022/11/15 12:06:05;;;;;;;0.75;0.20;;;;;;;;;;4167702;28;20057;-45
2022/11/15 12:08:25;;;;;;;0.60;0.20;;;;;;;;;;4134233;28;20421;-44
2022/11/15 12:10:32;;;;;;;0.77;0.20;;;;;;;;;;4131138;28;20057;-52
2022/11/15 12:12:56;;;;;;;0.95;0.30;;;;;;;;;;4148154;28;20405;-48
2022/11/15 12:15:06;;;;;;;0.60;0.20;;;;;;;;;;4147598;28;20046;-53
2022/11/15 12:17:09;;;;;;;;;;;;;;;;;;4135661;28;20050;-57
2022/11/15 12:19:10;;;;;;;0.32;0.20;;;;;;;;;;4132076;28;20355;-51
2022/11/15 12:21:21;;;;;;;0.28;0.20;;;;;;;;;;4134880;28;20057;-57
2022/11/15 12:23:28;;;;;;;0.30;0.30;;;;;;;;;;4137477;28;20058;-57
2022/11/15 12:25:50;;;;;;;1.65;0.20;;;;;;;;;;4138074;28;20457;-58
2022/11/15 12:28:19;;;;;;;0.63;0.20;;;;;;;;;;4133916;28;20057;-59
2022/11/15 12:30:21;;;;;;;0.32;0.20;;;;;;;;;;4136038;28;20066;-55
2022/11/15 12:32:33;;;;;;;0.15;0.13;;;;;;;;;;4165237;28;20057;-49
2022/11/15 12:34:45;;;;;;;0.70;0.20;;;;;;;;;;4131817;28;20053;-50
2022/11/15 12:36:48;;;;;;;0.63;0.20;;;;;;;;;;4134586;28;20505;-47
2022/11/15 12:39:08;;;;;;;0.55;0.20;;;;;;;;;;4132311;28;20058;-48
2022/11/15 12:41:14;;;;;;;;;;;;;;;;;;4133552;28;20059;-51
2022/11/15 12:43:15;;;;;;;0.60;0.17;;;;;;;;;;4129780;28;19984;-49
2022/11/15 12:45:38;;;;;;;0.10;0.10;;;;;;;;;;4136096;28;20053;-44
2022/11/15 12:47:39;;;;;;;0.40;0.28;;;;;;;;;;4135008;28;20049;-48
2022/11/15 12:49:41;;;;;;;0.35;0.20;;;;;;;;;;4136292;28;20057;-50
2022/11/15 12:51:42;;;;;;;0.80;0.10;;;;;;;;;;4135794;28;20057;-50
2022/11/15 12:53:43;;;;;;;1.92;0.20;;;;;;;;;;4139045;28;20497;-46
2022/11/15 12:56:16;;;;;;;1.75;0.17;;;;;;;;;;4138410;28;20050;-45
2022/11/15 12:58:28;;;;;;;0.20;0.10;;;;;;;;;;4134869;28;20740;-48
2022/11/15 13:00:33;;;;;;;0.30;0.20;;;;;;;;;;4136625;28;20307;-45
2022/11/15 13:02:39;;;;;;;0.68;0.28;;;;;;;;;;4127315;28;20145;-43
2022/11/15 13:04:41;;;;;;;0.40;0.10;;;;;;;;;;4147376;28;20053;-44
2022/11/15 13:06:45;;;;;;;0.10;0.10;;;;;;;;;;4137509;28;20492;-45
2022/11/15 13:08:48;;;;;;;0.28;0.10;;;;;;;;;;4134937;28;20732;-45
2022/11/15 13:10:50;;;;;;;2.17;0.30;;;;;;;;;;4129933;28;20466;-45
2022/11/15 13:12:55;;;;;;;0.22;0.20;;;;;;;;;;4139872;28;20753;-46
2022/11/15 13:14:58;;;;;;;0.50;0.15;;;;;;;;;;4164215;28;20127;-44
2022/11/15 13:16:59;;;;;;;0.50;0.30;;;;;;;;;;4136786;28;20054;-43
2022/11/15 13:19:02;;;;;;;1.17;0.20;;;;;;;;;;4137530;28;20452;-46
2022/11/15 13:22:50;;;;;;;1.10;0.32;;;;;;;;;;4139497;28;20058;-44
2022/11/15 13:23:27;;;;;;;0.45;0.10;;;;;;;;;;4140427;28;20062;-43
2022/11/15 13:25:54;;;;;;;0.20;0.20;;;;;;;;;;4139517;28;20092;-45
2022/11/15 13:27:57;;;;;;;0.20;0.20;;;;;;;;;;4135960;28;20053;-45
2022/11/15 13:29:59;;;;;;;0.73;0.10;;;;;;;;;;4138767;28;20096;-47
2022/11/15 13:32:00;;;;;;;1.23;0.15;;;;;;;;;;4138386;28;20058;-46
2022/11/15 13:34:13;;;;;;;0.20;0.20;;;;;;;;;;4138844;28;20069;-45
2022/11/15 13:36:19;;;;;;;0.20;0.10;;;;;;;;;;4171569;28;20114;-46
2022/11/15 13:38:24;;;;;;;1.10;0.40;;;;;;;;;;4137738;28;20508;-47
2022/11/15 13:40:32;;;;;;;0.38;0.20;;;;;;;;;;4136729;28;20049;-44
2022/11/15 13:42:34;;;;;;;0.10;0.10;;;;;;;;;;4139935;28;20429;-45
2022/11/15 13:44:35;;;;;;;0.47;0.10;;;;;;;;;;4153869;28;20057;-45
2022/11/15 13:46:37;;;;;;;0.10;0.10;;;;;;;;;;4134675;28;20552;-45
2022/11/15 13:48:43;;;;;;;0.50;0.10;;;;;;;;;;4137285;28;20470;-44
2022/11/15 13:50:44;;;;;;;1.23;0.60;;;;;;;;;;4136838;28;20065;-44
2022/11/15 13:52:48;;;;;;;0.40;0.13;;;;;;;;;;4133914;28;20061;-46
2022/11/15 13:54:59;;;;;;;0.30;0.15;;;;;;;;;;4149875;28;20090;-45
2022/11/15 13:57:08;;;;;;;0.35;0.10;;;;;;;;;;4149728;28;20140;-46
2022/11/15 13:59:30;;;;;;;0.90;0.10;;;;;;;;;;4133155;28;20054;-45
2022/11/15 14:01:32;;;;;;;0.43;0.10;;;;;;;;;;4151355;28;20057;-44
2022/11/15 14:03:41;;;;;;;0.35;0.20;;;;;;;;;;4128671;28;20456;-47
2022/11/15 14:05:42;;;;;;;2.58;0.30;;;;;;;;;;4137293;28;21065;-47
2022/11/15 14:08:12;;;;;;;1.10;0.20;;;;;;;;;;4139114;28;20062;-49
2022/11/15 14:10:36;;;;;;;1.77;0.20;;;;;;;;;;4141041;28;20061;-48
2022/11/15 14:12:37;;;;;;;0.30;0.10;;;;;;;;;;4135869;28;20057;-42
2022/11/15 14:14:45;;;;;;;0.28;0.10;;;;;;;;;;4138114;28;20434;-50